sensor_id;sensor_type;location;lat;lon;timestamp;P1;durP1;ratioP1;P2;durP2;ratioP2
43216;SDS011;60511;42.686;23.300;2023-02-10T00:01:24;19.60;;;16.48;;
43216;SDS011;60511;42.686;23.300;2023-02-10T00:03:26;18.70;;;16.70;;
43216;SDS011;60511;42.686;23.300;2023-02-10T00:05:26;19.05;;;17.05;;
43216;SDS011;60511;42.686;23.300;2023-02-10T00:07:27;18.23;;;16.40;;
43216;SDS011;60511;42.686;23.300;2023-02-10T00:09:27;18.83;;;16.92;;
43216;SDS011;60511;42.686;23.300;2023-02-10T00:11:28;19.40;;;17.30;;
43216;SDS011;60511;42.686;23.300;2023-02-10T00:13:46;19.50;;;17.42;;
43216;SDS011;60511;42.686;23.300;2023-02-10T00:15:47;18.35;;;16.42;;
43216;SDS011;60511;42.686;23.300;2023-02-10T00:17:47;19.85;;;17.10;;
43216;SDS011;60511;42.686;23.300;2023-02-10T00:19:48;19.20;;;17.20;;
43216;SDS011;60511;42.686;23.300;2023-02-10T00:21:48;18.83;;;16.80;;
43216;SDS011;60511;42.686;23.300;2023-02-10T00:23:49;19.42;;;17.33;;
43216;SDS011;60511;42.686;23.300;2023-02-10T00:25:50;21.30;;;19.08;;
43216;SDS011;60511;42.686;23.300;2023-02-10T00:27:50;21.02;;;17.85;;
43216;SDS011;60511;42.686;23.300;2023-02-10T00:29:51;20.38;;;18.20;;
43216;SDS011;60511;42.686;23.300;2023-02-10T00:31:51;18.75;;;16.77;;
43216;SDS011;60511;42.686;23.300;2023-02-10T00:33:52;18.65;;;16.70;;
43216;SDS011;60511;42.686;23.300;2023-02-10T00:35:52;20.38;;;18.10;;
43216;SDS011;60511;42.686;23.300;2023-02-10T00:37:53;19.98;;;17.17;;
43216;SDS011;60511;42.686;23.300;2023-02-10T00:39:53;19.38;;;17.35;;
43216;SDS011;60511;42.686;23.300;2023-02-10T00:41:55;20.00;;;17.65;;
43216;SDS011;60511;42.686;23.300;2023-02-10T00:43:55;20.25;;;18.00;;
43216;SDS011;60511;42.686;23.300;2023-02-10T00:45:55;20.23;;;18.23;;
43216;SDS011;60511;42.686;23.300;2023-02-10T00:47:56;19.75;;;17.65;;
43216;SDS011;60511;42.686;23.300;2023-02-10T00:49:56;18.88;;;16.85;;
43216;SDS011;60511;42.686;23.300;2023-02-10T00:51:57;20.80;;;18.60;;
43216;SDS011;60511;42.686;23.300;2023-02-10T00:53:57;19.85;;;17.83;;
43216;SDS011;60511;42.686;23.300;2023-02-10T00:55:57;20.55;;;18.45;;
43216;SDS011;60511;42.686;23.300;2023-02-10T00:57:58;20.70;;;18.50;;
43216;SDS011;60511;42.686;23.300;2023-02-10T00:59:58;20.38;;;17.55;;
43216;SDS011;60511;42.686;23.300;2023-02-10T01:01:58;21.50;;;19.00;;
43216;SDS011;60511;42.686;23.300;2023-02-10T01:03:59;20.13;;;18.02;;
43216;SDS011;60511;42.686;23.300;2023-02-10T01:05:59;20.88;;;18.35;;
43216;SDS011;60511;42.686;23.300;2023-02-10T01:08:00;20.45;;;18.25;;
43216;SDS011;60511;42.686;23.300;2023-02-10T01:10:01;20.52;;;18.35;;
43216;SDS011;60511;42.686;23.300;2023-02-10T01:12:01;20.65;;;18.55;;
43216;SDS011;60511;42.686;23.300;2023-02-10T01:14:02;22.27;;;19.42;;
43216;SDS011;60511;42.686;23.300;2023-02-10T01:16:06;19.52;;;17.40;;
43216;SDS011;60511;42.686;23.300;2023-02-10T01:18:11;20.05;;;18.05;;
43216;SDS011;60511;42.686;23.300;2023-02-10T01:20:12;20.73;;;18.73;;
43216;SDS011;60511;42.686;23.300;2023-02-10T01:22:13;19.40;;;17.30;;
43216;SDS011;60511;42.686;23.300;2023-02-10T01:24:13;19.92;;;17.90;;
43216;SDS011;60511;42.686;23.300;2023-02-10T01:26:13;19.55;;;17.55;;
43216;SDS011;60511;42.686;23.300;2023-02-10T01:28:14;20.25;;;18.17;;
43216;SDS011;60511;42.686;23.300;2023-02-10T01:30:15;19.98;;;17.98;;
43216;SDS011;60511;42.686;23.300;2023-02-10T01:32:15;19.75;;;17.75;;
43216;SDS011;60511;42.686;23.300;2023-02-10T01:34:15;20.38;;;18.27;;
43216;SDS011;60511;42.686;23.300;2023-02-10T01:36:16;21.23;;;18.60;;
43216;SDS011;60511;42.686;23.300;2023-02-10T01:38:18;20.17;;;18.05;;
43216;SDS011;60511;42.686;23.300;2023-02-10T01:40:18;21.27;;;17.45;;
43216;SDS011;60511;42.686;23.300;2023-02-10T01:42:19;19.45;;;17.42;;
43216;SDS011;60511;42.686;23.300;2023-02-10T01:46:19;20.70;;;18.52;;
43216;SDS011;60511;42.686;23.300;2023-02-10T01:48:20;19.77;;;17.70;;
43216;SDS011;60511;42.686;23.300;2023-02-10T01:50:23;19.55;;;17.55;;
43216;SDS011;60511;42.686;23.300;2023-02-10T01:52:27;19.98;;;17.90;;
43216;SDS011;60511;42.686;23.300;2023-02-10T01:54:30;19.73;;;17.27;;
43216;SDS011;60511;42.686;23.300;2023-02-10T01:56:35;20.65;;;18.45;;
43216;SDS011;60511;42.686;23.300;2023-02-10T01:58:36;20.73;;;18.58;;
43216;SDS011;60511;42.686;23.300;2023-02-10T02:00:37;20.40;;;18.20;;
43216;SDS011;60511;42.686;23.300;2023-02-10T02:02:38;20.88;;;18.15;;
43216;SDS011;60511;42.686;23.300;2023-02-10T02:04:41;20.50;;;18.33;;
43216;SDS011;60511;42.686;23.300;2023-02-10T02:06:47;21.67;;;19.38;;
43216;SDS011;60511;42.686;23.300;2023-02-10T02:08:48;19.85;;;17.70;;
43216;SDS011;60511;42.686;23.300;2023-02-10T02:10:54;20.00;;;17.92;;
43216;SDS011;60511;42.686;23.300;2023-02-10T02:13:07;19.80;;;17.73;;
43216;SDS011;60511;42.686;23.300;2023-02-10T02:33:49;20.17;;;18.10;;
43216;SDS011;60511;42.686;23.300;2023-02-10T02:35:57;19.95;;;17.80;;
43216;SDS011;60511;42.686;23.300;2023-02-10T02:38:07;19.00;;;16.88;;
43216;SDS011;60511;42.686;23.300;2023-02-10T02:40:08;20.15;;;17.98;;
43216;SDS011;60511;42.686;23.300;2023-02-10T02:44:23;19.60;;;17.60;;
43216;SDS011;60511;42.686;23.300;2023-02-10T02:49:00;20.48;;;18.27;;
43216;SDS011;60511;42.686;23.300;2023-02-10T03:00:50;18.73;;;16.80;;
43216;SDS011;60511;42.686;23.300;2023-02-10T03:02:53;20.05;;;18.00;;
43216;SDS011;60511;42.686;23.300;2023-02-10T03:04:54;19.48;;;17.30;;
43216;SDS011;60511;42.686;23.300;2023-02-10T03:06:54;18.67;;;16.55;;
43216;SDS011;60511;42.686;23.300;2023-02-10T03:08:54;19.08;;;16.45;;
43216;SDS011;60511;42.686;23.300;2023-02-10T03:10:55;19.83;;;16.90;;
43216;SDS011;60511;42.686;23.300;2023-02-10T03:12:55;18.55;;;16.65;;
43216;SDS011;60511;42.686;23.300;2023-02-10T03:14:56;18.35;;;16.38;;
43216;SDS011;60511;42.686;23.300;2023-02-10T03:16:56;19.33;;;17.23;;
43216;SDS011;60511;42.686;23.300;2023-02-10T03:18:57;18.73;;;16.83;;
43216;SDS011;60511;42.686;23.300;2023-02-10T03:20:57;18.45;;;16.60;;
43216;SDS011;60511;42.686;23.300;2023-02-10T03:22:57;19.38;;;17.40;;
43216;SDS011;60511;42.686;23.300;2023-02-10T03:24:58;19.33;;;16.77;;
43216;SDS011;60511;42.686;23.300;2023-02-10T03:26:58;18.20;;;16.40;;
43216;SDS011;60511;42.686;23.300;2023-02-10T03:28:59;18.02;;;16.23;;
43216;SDS011;60511;42.686;23.300;2023-02-10T03:31:03;18.25;;;16.38;;
43216;SDS011;60511;42.686;23.300;2023-02-10T03:33:05;17.88;;;16.08;;
43216;SDS011;60511;42.686;23.300;2023-02-10T03:35:05;18.55;;;16.52;;
43216;SDS011;60511;42.686;23.300;2023-02-10T03:37:06;18.15;;;16.25;;
43216;SDS011;60511;42.686;23.300;2023-02-10T03:39:06;16.92;;;15.05;;
43216;SDS011;60511;42.686;23.300;2023-02-10T03:41:06;17.38;;;15.57;;
43216;SDS011;60511;42.686;23.300;2023-02-10T03:43:07;16.92;;;15.23;;
43216;SDS011;60511;42.686;23.300;2023-02-10T03:45:07;18.15;;;16.33;;
43216;SDS011;60511;42.686;23.300;2023-02-10T03:47:08;18.75;;;16.63;;
43216;SDS011;60511;42.686;23.300;2023-02-10T03:49:09;17.70;;;16.00;;
43216;SDS011;60511;42.686;23.300;2023-02-10T03:51:09;17.80;;;15.93;;
43216;SDS011;60511;42.686;23.300;2023-02-10T03:53:10;18.05;;;16.15;;
43216;SDS011;60511;42.686;23.300;2023-02-10T03:55:11;17.55;;;15.38;;
43216;SDS011;60511;42.686;23.300;2023-02-10T03:57:14;17.35;;;15.55;;
43216;SDS011;60511;42.686;23.300;2023-02-10T03:59:14;17.23;;;15.43;;
43216;SDS011;60511;42.686;23.300;2023-02-10T04:01:16;16.85;;;15.02;;
43216;SDS011;60511;42.686;23.300;2023-02-10T04:03:16;16.63;;;14.93;;
43216;SDS011;60511;42.686;23.300;2023-02-10T04:05:18;16.90;;;15.10;;
43216;SDS011;60511;42.686;23.300;2023-02-10T04:07:19;16.10;;;14.30;;
43216;SDS011;60511;42.686;23.300;2023-02-10T04:09:19;18.45;;;16.27;;
43216;SDS011;60511;42.686;23.300;2023-02-10T04:11:19;17.27;;;14.93;;
43216;SDS011;60511;42.686;23.300;2023-02-10T04:13:20;16.98;;;15.15;;
43216;SDS011;60511;42.686;23.300;2023-02-10T04:15:20;17.50;;;15.75;;
43216;SDS011;60511;42.686;23.300;2023-02-10T04:17:21;16.42;;;14.75;;
43216;SDS011;60511;42.686;23.300;2023-02-10T04:19:21;16.50;;;14.80;;
43216;SDS011;60511;42.686;23.300;2023-02-10T04:21:21;17.25;;;15.40;;
43216;SDS011;60511;42.686;23.300;2023-02-10T04:23:22;16.10;;;13.70;;
43216;SDS011;60511;42.686;23.300;2023-02-10T04:25:22;16.27;;;14.55;;
43216;SDS011;60511;42.686;23.300;2023-02-10T04:27:23;17.45;;;15.65;;
43216;SDS011;60511;42.686;23.300;2023-02-10T04:29:23;16.85;;;15.15;;
43216;SDS011;60511;42.686;23.300;2023-02-10T04:31:23;16.58;;;14.93;;
43216;SDS011;60511;42.686;23.300;2023-02-10T04:33:24;16.15;;;14.45;;
43216;SDS011;60511;42.686;23.300;2023-02-10T04:35:24;15.80;;;14.05;;
43216;SDS011;60511;42.686;23.300;2023-02-10T04:37:25;17.02;;;15.27;;
43216;SDS011;60511;42.686;23.300;2023-02-10T04:39:25;16.17;;;14.48;;
43216;SDS011;60511;42.686;23.300;2023-02-10T04:41:26;15.13;;;13.52;;
43216;SDS011;60511;42.686;23.300;2023-02-10T04:43:26;16.02;;;14.43;;
43216;SDS011;60511;42.686;23.300;2023-02-10T04:45:26;16.05;;;14.40;;
43216;SDS011;60511;42.686;23.300;2023-02-10T04:47:27;15.70;;;14.10;;
43216;SDS011;60511;42.686;23.300;2023-02-10T04:49:28;15.55;;;13.93;;
43216;SDS011;60511;42.686;23.300;2023-02-10T04:51:28;16.08;;;14.38;;
43216;SDS011;60511;42.686;23.300;2023-02-10T04:53:28;16.45;;;14.73;;
43216;SDS011;60511;42.686;23.300;2023-02-10T04:55:29;16.02;;;14.32;;
43216;SDS011;60511;42.686;23.300;2023-02-10T04:57:29;16.05;;;14.38;;
43216;SDS011;60511;42.686;23.300;2023-02-10T04:59:30;15.73;;;14.13;;
43216;SDS011;60511;42.686;23.300;2023-02-10T05:01:30;16.52;;;14.85;;
43216;SDS011;60511;42.686;23.300;2023-02-10T05:03:31;15.30;;;13.70;;
43216;SDS011;60511;42.686;23.300;2023-02-10T05:05:31;16.15;;;14.55;;
43216;SDS011;60511;42.686;23.300;2023-02-10T05:07:31;16.00;;;14.30;;
43216;SDS011;60511;42.686;23.300;2023-02-10T05:09:32;15.38;;;13.88;;
43216;SDS011;60511;42.686;23.300;2023-02-10T05:11:32;16.65;;;14.75;;
43216;SDS011;60511;42.686;23.300;2023-02-10T05:13:33;16.55;;;14.88;;
43216;SDS011;60511;42.686;23.300;2023-02-10T05:15:33;15.18;;;13.77;;
43216;SDS011;60511;42.686;23.300;2023-02-10T05:17:33;15.60;;;14.20;;
43216;SDS011;60511;42.686;23.300;2023-02-10T05:19:34;16.52;;;14.27;;
43216;SDS011;60511;42.686;23.300;2023-02-10T05:21:35;15.93;;;14.25;;
43216;SDS011;60511;42.686;23.300;2023-02-10T05:23:35;16.08;;;14.48;;
43216;SDS011;60511;42.686;23.300;2023-02-10T05:25:36;15.85;;;14.15;;
43216;SDS011;60511;42.686;23.300;2023-02-10T05:27:36;14.85;;;13.45;;
43216;SDS011;60511;42.686;23.300;2023-02-10T05:29:36;14.57;;;13.23;;
43216;SDS011;60511;42.686;23.300;2023-02-10T05:31:37;15.70;;;14.07;;
43216;SDS011;60511;42.686;23.300;2023-02-10T05:33:37;15.07;;;13.57;;
43216;SDS011;60511;42.686;23.300;2023-02-10T05:35:38;16.02;;;14.38;;
43216;SDS011;60511;42.686;23.300;2023-02-10T05:37:38;16.83;;;14.82;;
43216;SDS011;60511;42.686;23.300;2023-02-10T05:39:38;15.82;;;14.27;;
43216;SDS011;60511;42.686;23.300;2023-02-10T05:41:39;15.88;;;14.27;;
43216;SDS011;60511;42.686;23.300;2023-02-10T05:43:40;16.23;;;14.52;;
43216;SDS011;60511;42.686;23.300;2023-02-10T05:45:40;16.38;;;14.65;;
43216;SDS011;60511;42.686;23.300;2023-02-10T05:47:41;15.55;;;13.98;;
43216;SDS011;60511;42.686;23.300;2023-02-10T05:49:42;15.77;;;14.18;;
43216;SDS011;60511;42.686;23.300;2023-02-10T05:51:42;15.85;;;14.18;;
43216;SDS011;60511;42.686;23.300;2023-02-10T05:53:43;15.90;;;14.27;;
43216;SDS011;60511;42.686;23.300;2023-02-10T05:55:45;16.05;;;14.48;;
43216;SDS011;60511;42.686;23.300;2023-02-10T05:57:46;16.77;;;14.90;;
43216;SDS011;60511;42.686;23.300;2023-02-10T05:59:46;15.57;;;14.07;;
43216;SDS011;60511;42.686;23.300;2023-02-10T06:01:47;17.17;;;15.38;;
43216;SDS011;60511;42.686;23.300;2023-02-10T06:03:47;16.55;;;14.75;;
43216;SDS011;60511;42.686;23.300;2023-02-10T06:05:48;17.17;;;15.38;;
43216;SDS011;60511;42.686;23.300;2023-02-10T06:07:48;16.27;;;14.32;;
43216;SDS011;60511;42.686;23.300;2023-02-10T06:09:49;16.38;;;14.70;;
43216;SDS011;60511;42.686;23.300;2023-02-10T06:11:50;16.23;;;14.60;;
43216;SDS011;60511;42.686;23.300;2023-02-10T06:13:51;17.38;;;15.70;;
43216;SDS011;60511;42.686;23.300;2023-02-10T06:15:52;17.50;;;15.68;;
43216;SDS011;60511;42.686;23.300;2023-02-10T06:17:52;17.23;;;15.50;;
43216;SDS011;60511;42.686;23.300;2023-02-10T06:19:52;17.08;;;15.27;;
43216;SDS011;60511;42.686;23.300;2023-02-10T06:21:53;16.80;;;15.10;;
43216;SDS011;60511;42.686;23.300;2023-02-10T06:23:53;17.02;;;15.10;;
43216;SDS011;60511;42.686;23.300;2023-02-10T06:25:54;16.85;;;15.07;;
43216;SDS011;60511;42.686;23.300;2023-02-10T06:27:54;17.98;;;16.17;;
43216;SDS011;60511;42.686;23.300;2023-02-10T06:29:55;18.08;;;16.27;;
43216;SDS011;60511;42.686;23.300;2023-02-10T06:31:55;16.90;;;15.20;;
43216;SDS011;60511;42.686;23.300;2023-02-10T06:33:56;16.88;;;15.18;;
43216;SDS011;60511;42.686;23.300;2023-02-10T06:35:56;17.98;;;16.13;;
43216;SDS011;60511;42.686;23.300;2023-02-10T06:37:56;17.75;;;15.95;;
43216;SDS011;60511;42.686;23.300;2023-02-10T06:39:57;18.25;;;15.30;;
43216;SDS011;60511;42.686;23.300;2023-02-10T06:41:57;20.27;;;16.45;;
43216;SDS011;60511;42.686;23.300;2023-02-10T06:43:59;17.48;;;15.65;;
43216;SDS011;60511;42.686;23.300;2023-02-10T06:46:00;18.02;;;16.27;;
43216;SDS011;60511;42.686;23.300;2023-02-10T06:48:01;18.33;;;16.52;;
43216;SDS011;60511;42.686;23.300;2023-02-10T06:50:02;19.02;;;16.13;;
43216;SDS011;60511;42.686;23.300;2023-02-10T06:52:03;18.65;;;16.65;;
43216;SDS011;60511;42.686;23.300;2023-02-10T06:54:03;18.33;;;15.95;;
43216;SDS011;60511;42.686;23.300;2023-02-10T06:56:04;18.17;;;16.25;;
43216;SDS011;60511;42.686;23.300;2023-02-10T06:58:04;18.27;;;16.38;;
43216;SDS011;60511;42.686;23.300;2023-02-10T07:00:06;17.95;;;16.25;;
43216;SDS011;60511;42.686;23.300;2023-02-10T07:02:12;20.42;;;15.85;;
43216;SDS011;60511;42.686;23.300;2023-02-10T07:04:12;17.23;;;15.45;;
43216;SDS011;60511;42.686;23.300;2023-02-10T07:06:13;19.33;;;17.23;;
43216;SDS011;60511;42.686;23.300;2023-02-10T07:08:14;18.20;;;16.27;;
43216;SDS011;60511;42.686;23.300;2023-02-10T07:10:14;17.88;;;15.77;;
43216;SDS011;60511;42.686;23.300;2023-02-10T07:12:14;17.60;;;15.63;;
43216;SDS011;60511;42.686;23.300;2023-02-10T07:14:15;17.52;;;15.73;;
43216;SDS011;60511;42.686;23.300;2023-02-10T07:16:16;19.17;;;17.20;;
43216;SDS011;60511;42.686;23.300;2023-02-10T07:18:16;19.63;;;16.35;;
43216;SDS011;60511;42.686;23.300;2023-02-10T07:20:20;18.30;;;16.40;;
43216;SDS011;60511;42.686;23.300;2023-02-10T07:22:21;18.75;;;15.20;;
43216;SDS011;60511;42.686;23.300;2023-02-10T07:24:23;18.13;;;16.27;;
43216;SDS011;60511;42.686;23.300;2023-02-10T07:26:23;17.45;;;15.75;;
43216;SDS011;60511;42.686;23.300;2023-02-10T07:28:24;17.83;;;15.90;;
43216;SDS011;60511;42.686;23.300;2023-02-10T07:30:24;18.42;;;16.35;;
43216;SDS011;60511;42.686;23.300;2023-02-10T07:32:25;19.05;;;16.40;;
43216;SDS011;60511;42.686;23.300;2023-02-10T07:34:26;17.85;;;16.00;;
43216;SDS011;60511;42.686;23.300;2023-02-10T07:36:27;17.77;;;15.88;;
43216;SDS011;60511;42.686;23.300;2023-02-10T07:38:27;17.88;;;15.90;;
43216;SDS011;60511;42.686;23.300;2023-02-10T07:40:28;17.98;;;16.17;;
43216;SDS011;60511;42.686;23.300;2023-02-10T07:42:30;17.60;;;15.80;;
43216;SDS011;60511;42.686;23.300;2023-02-10T07:44:31;18.10;;;16.20;;
43216;SDS011;60511;42.686;23.300;2023-02-10T07:46:32;17.95;;;16.20;;
43216;SDS011;60511;42.686;23.300;2023-02-10T07:48:32;20.00;;;16.10;;
43216;SDS011;60511;42.686;23.300;2023-02-10T07:50:33;17.38;;;15.52;;
43216;SDS011;60511;42.686;23.300;2023-02-10T07:52:33;18.92;;;15.40;;
43216;SDS011;60511;42.686;23.300;2023-02-10T07:54:33;18.05;;;15.90;;
43216;SDS011;60511;42.686;23.300;2023-02-10T07:56:34;18.45;;;16.65;;
43216;SDS011;60511;42.686;23.300;2023-02-10T07:58:35;18.00;;;16.20;;
43216;SDS011;60511;42.686;23.300;2023-02-10T08:00:37;18.23;;;15.50;;
43216;SDS011;60511;42.686;23.300;2023-02-10T08:02:37;18.52;;;16.65;;
43216;SDS011;60511;42.686;23.300;2023-02-10T08:04:39;18.30;;;16.50;;
43216;SDS011;60511;42.686;23.300;2023-02-10T08:06:40;17.52;;;15.43;;
43216;SDS011;60511;42.686;23.300;2023-02-10T08:08:41;18.10;;;16.30;;
43216;SDS011;60511;42.686;23.300;2023-02-10T08:10:41;17.45;;;15.68;;
43216;SDS011;60511;42.686;23.300;2023-02-10T08:12:42;17.58;;;15.88;;
43216;SDS011;60511;42.686;23.300;2023-02-10T08:14:42;17.35;;;15.60;;
43216;SDS011;60511;42.686;23.300;2023-02-10T08:16:43;17.60;;;14.98;;
43216;SDS011;60511;42.686;23.300;2023-02-10T08:18:43;18.83;;;16.83;;
43216;SDS011;60511;42.686;23.300;2023-02-10T08:20:44;18.30;;;16.40;;
43216;SDS011;60511;42.686;23.300;2023-02-10T08:22:44;16.65;;;14.95;;
43216;SDS011;60511;42.686;23.300;2023-02-10T08:24:44;17.65;;;15.85;;
43216;SDS011;60511;42.686;23.300;2023-02-10T08:26:45;18.50;;;16.60;;
43216;SDS011;60511;42.686;23.300;2023-02-10T08:28:45;16.42;;;14.82;;
43216;SDS011;60511;42.686;23.300;2023-02-10T08:30:45;17.92;;;16.13;;
43216;SDS011;60511;42.686;23.300;2023-02-10T08:32:46;18.00;;;16.10;;
43216;SDS011;60511;42.686;23.300;2023-02-10T08:34:47;18.90;;;16.30;;
43216;SDS011;60511;42.686;23.300;2023-02-10T08:36:48;20.35;;;16.90;;
43216;SDS011;60511;42.686;23.300;2023-02-10T08:38:49;17.00;;;15.27;;
43216;SDS011;60511;42.686;23.300;2023-02-10T08:40:54;17.98;;;16.10;;
43216;SDS011;60511;42.686;23.300;2023-02-10T08:42:56;17.10;;;15.32;;
43216;SDS011;60511;42.686;23.300;2023-02-10T08:44:57;17.38;;;15.43;;
43216;SDS011;60511;42.686;23.300;2023-02-10T08:46:57;17.15;;;15.43;;
43216;SDS011;60511;42.686;23.300;2023-02-10T08:48:57;16.88;;;15.25;;
43216;SDS011;60511;42.686;23.300;2023-02-10T08:51:00;16.60;;;14.90;;
43216;SDS011;60511;42.686;23.300;2023-02-10T08:53:05;16.77;;;15.00;;
43216;SDS011;60511;42.686;23.300;2023-02-10T08:55:06;16.77;;;15.05;;
43216;SDS011;60511;42.686;23.300;2023-02-10T08:57:07;16.50;;;14.68;;
43216;SDS011;60511;42.686;23.300;2023-02-10T08:59:08;17.75;;;14.90;;
43216;SDS011;60511;42.686;23.300;2023-02-10T09:01:09;22.13;;;16.02;;
43216;SDS011;60511;42.686;23.300;2023-02-10T09:03:30;17.08;;;15.18;;
43216;SDS011;60511;42.686;23.300;2023-02-10T09:05:30;17.35;;;15.65;;
43216;SDS011;60511;42.686;23.300;2023-02-10T09:07:35;19.10;;;15.95;;
43216;SDS011;60511;42.686;23.300;2023-02-10T09:09:39;18.35;;;16.45;;
43216;SDS011;60511;42.686;23.300;2023-02-10T09:11:41;18.73;;;16.75;;
43216;SDS011;60511;42.686;23.300;2023-02-10T09:13:42;16.02;;;14.38;;
43216;SDS011;60511;42.686;23.300;2023-02-10T09:15:42;17.45;;;15.38;;
43216;SDS011;60511;42.686;23.300;2023-02-10T09:17:43;16.17;;;14.43;;
43216;SDS011;60511;42.686;23.300;2023-02-10T09:19:43;17.20;;;15.40;;
43216;SDS011;60511;42.686;23.300;2023-02-10T09:21:44;17.48;;;15.18;;
43216;SDS011;60511;42.686;23.300;2023-02-10T09:23:44;17.13;;;15.23;;
43216;SDS011;60511;42.686;23.300;2023-02-10T09:25:51;20.88;;;15.38;;
43216;SDS011;60511;42.686;23.300;2023-02-10T09:27:56;17.20;;;15.23;;
43216;SDS011;60511;42.686;23.300;2023-02-10T09:29:57;17.27;;;15.20;;
43216;SDS011;60511;42.686;23.300;2023-02-10T09:31:57;17.77;;;15.32;;
43216;SDS011;60511;42.686;23.300;2023-02-10T09:33:58;18.92;;;15.10;;
43216;SDS011;60511;42.686;23.300;2023-02-10T09:36:01;16.25;;;14.63;;
43216;SDS011;60511;42.686;23.300;2023-02-10T09:38:02;17.38;;;15.20;;
43216;SDS011;60511;42.686;23.300;2023-02-10T09:40:04;16.23;;;14.63;;
43216;SDS011;60511;42.686;23.300;2023-02-10T09:42:26;16.38;;;14.65;;
43216;SDS011;60511;42.686;23.300;2023-02-10T09:44:51;17.00;;;15.30;;
43216;SDS011;60511;42.686;23.300;2023-02-10T09:54:05;21.95;;;19.63;;
43216;SDS011;60511;42.686;23.300;2023-02-10T09:56:12;24.42;;;21.80;;
43216;SDS011;60511;42.686;23.300;2023-02-10T10:00:27;25.52;;;22.83;;
43216;SDS011;60511;42.686;23.300;2023-02-10T10:02:31;27.58;;;22.83;;
43216;SDS011;60511;42.686;23.300;2023-02-10T10:04:42;26.27;;;22.08;;
43216;SDS011;60511;42.686;23.300;2023-02-10T10:06:45;25.85;;;23.25;;
43216;SDS011;60511;42.686;23.300;2023-02-10T10:11:01;26.40;;;23.10;;
43216;SDS011;60511;42.686;23.300;2023-02-10T10:13:20;25.10;;;22.08;;
43216;SDS011;60511;42.686;23.300;2023-02-10T10:15:24;25.90;;;21.98;;
43216;SDS011;60511;42.686;23.300;2023-02-10T10:21:51;22.75;;;20.50;;
43216;SDS011;60511;42.686;23.300;2023-02-10T10:26:15;21.13;;;18.77;;
43216;SDS011;60511;42.686;23.300;2023-02-10T10:28:25;21.83;;;19.40;;
43216;SDS011;60511;42.686;23.300;2023-02-10T10:30:44;20.20;;;18.10;;
43216;SDS011;60511;42.686;23.300;2023-02-10T10:32:54;20.63;;;18.55;;
43216;SDS011;60511;42.686;23.300;2023-02-10T10:35:16;24.25;;;20.83;;
43216;SDS011;60511;42.686;23.300;2023-02-10T10:37:25;26.67;;;21.70;;
43216;SDS011;60511;42.686;23.300;2023-02-10T10:39:39;23.90;;;21.45;;
43216;SDS011;60511;42.686;23.300;2023-02-10T10:41:42;26.17;;;21.98;;
43216;SDS011;60511;42.686;23.300;2023-02-10T10:43:45;25.60;;;22.92;;
43216;SDS011;60511;42.686;23.300;2023-02-10T10:45:56;24.52;;;21.77;;
43216;SDS011;60511;42.686;23.300;2023-02-10T10:48:09;26.08;;;21.70;;
43216;SDS011;60511;42.686;23.300;2023-02-10T10:50:17;23.38;;;20.85;;
43216;SDS011;60511;42.686;23.300;2023-02-10T10:52:30;21.45;;;19.00;;
43216;SDS011;60511;42.686;23.300;2023-02-10T10:54:35;21.92;;;19.20;;
43216;SDS011;60511;42.686;23.300;2023-02-10T10:59:18;21.23;;;18.60;;
43216;SDS011;60511;42.686;23.300;2023-02-10T11:01:36;20.67;;;18.50;;
43216;SDS011;60511;42.686;23.300;2023-02-10T11:03:38;21.80;;;19.48;;
43216;SDS011;60511;42.686;23.300;2023-02-10T11:05:39;20.70;;;18.10;;
43216;SDS011;60511;42.686;23.300;2023-02-10T11:07:40;22.05;;;18.50;;
43216;SDS011;60511;42.686;23.300;2023-02-10T11:09:47;18.63;;;16.65;;
43216;SDS011;60511;42.686;23.300;2023-02-10T11:11:49;21.55;;;17.92;;
43216;SDS011;60511;42.686;23.300;2023-02-10T11:13:53;19.48;;;17.65;;
43216;SDS011;60511;42.686;23.300;2023-02-10T11:18:00;18.23;;;16.33;;
43216;SDS011;60511;42.686;23.300;2023-02-10T11:22:14;18.20;;;16.30;;
43216;SDS011;60511;42.686;23.300;2023-02-10T11:26:26;17.98;;;16.15;;
43216;SDS011;60511;42.686;23.300;2023-02-10T11:28:28;16.85;;;15.18;;
43216;SDS011;60511;42.686;23.300;2023-02-10T11:32:35;18.95;;;17.00;;
43216;SDS011;60511;42.686;23.300;2023-02-10T11:34:43;18.27;;;16.55;;
43216;SDS011;60511;42.686;23.300;2023-02-10T11:36:46;18.88;;;16.92;;
43216;SDS011;60511;42.686;23.300;2023-02-10T11:38:47;18.63;;;16.35;;
43216;SDS011;60511;42.686;23.300;2023-02-10T11:41:04;17.35;;;15.60;;
43216;SDS011;60511;42.686;23.300;2023-02-10T11:43:10;17.33;;;14.68;;
43216;SDS011;60511;42.686;23.300;2023-02-10T11:45:19;18.13;;;16.33;;
43216;SDS011;60511;42.686;23.300;2023-02-10T11:47:21;18.15;;;15.75;;
43216;SDS011;60511;42.686;23.300;2023-02-10T11:49:21;17.20;;;14.60;;
43216;SDS011;60511;42.686;23.300;2023-02-10T11:51:22;16.67;;;14.98;;
43216;SDS011;60511;42.686;23.300;2023-02-10T11:53:27;18.10;;;16.20;;
43216;SDS011;60511;42.686;23.300;2023-02-10T11:58:20;16.70;;;14.95;;
43216;SDS011;60511;42.686;23.300;2023-02-10T12:01:03;17.40;;;15.45;;
43216;SDS011;60511;42.686;23.300;2023-02-10T12:09:46;16.45;;;14.75;;
43216;SDS011;60511;42.686;23.300;2023-02-10T12:12:17;15.93;;;14.23;;
43216;SDS011;60511;42.686;23.300;2023-02-10T12:22:15;15.68;;;14.07;;
43216;SDS011;60511;42.686;23.300;2023-02-10T12:26:37;16.02;;;14.48;;
43216;SDS011;60511;42.686;23.300;2023-02-10T12:31:12;16.10;;;14.48;;
43216;SDS011;60511;42.686;23.300;2023-02-10T12:36:00;16.67;;;14.90;;
43216;SDS011;60511;42.686;23.300;2023-02-10T12:38:21;18.95;;;14.25;;
43216;SDS011;60511;42.686;23.300;2023-02-10T12:45:12;14.48;;;13.07;;
43216;SDS011;60511;42.686;23.300;2023-02-10T12:49:48;16.20;;;14.45;;
43216;SDS011;60511;42.686;23.300;2023-02-10T12:52:12;15.13;;;13.52;;
43216;SDS011;60511;42.686;23.300;2023-02-10T12:54:27;15.07;;;13.57;;
43216;SDS011;60511;42.686;23.300;2023-02-10T12:59:00;14.50;;;13.10;;
43216;SDS011;60511;42.686;23.300;2023-02-10T13:05:38;14.93;;;13.18;;
43216;SDS011;60511;42.686;23.300;2023-02-10T13:07:53;14.13;;;12.73;;
43216;SDS011;60511;42.686;23.300;2023-02-10T13:12:21;15.05;;;13.43;;
43216;SDS011;60511;42.686;23.300;2023-02-10T13:14:28;14.55;;;12.93;;
43216;SDS011;60511;42.686;23.300;2023-02-10T13:16:30;15.68;;;14.07;;
43216;SDS011;60511;42.686;23.300;2023-02-10T13:18:43;15.05;;;13.55;;
43216;SDS011;60511;42.686;23.300;2023-02-10T13:32:29;13.55;;;12.02;;
43216;SDS011;60511;42.686;23.300;2023-02-10T13:34:34;13.85;;;12.50;;
43216;SDS011;60511;42.686;23.300;2023-02-10T13:36:40;14.85;;;13.45;;
43216;SDS011;60511;42.686;23.300;2023-02-10T13:38:45;14.18;;;12.88;;
43216;SDS011;60511;42.686;23.300;2023-02-10T13:40:49;13.98;;;12.57;;
43216;SDS011;60511;42.686;23.300;2023-02-10T13:43:17;14.85;;;13.43;;
43216;SDS011;60511;42.686;23.300;2023-02-10T13:45:35;13.30;;;11.93;;